IBE07MM LEMD-EGLL
Flight info
| Callsign | IBE07MM |
|---|---|
| Flight time | 1h 45m |
| Altitude | 38000 |
| Route | SIE1X SIE N858 DGO N867 NENEM DCT DIDIG UP87 ROXOG ROXOG1H |
| Aircraft | A333/H-SDE3GHIJ2J3J5M1RVWXY/LB2D1 |
Departure
| Time | 2026-05-07 16:46 |
|---|---|
| Airport | Adolfo Suárez Madrid–Barajas Airport (LEMD) |
Arrival
| Time | 2026-05-07 18:32 |
|---|---|
| Airport | London Heathrow Airport (EGLL) |
| Time | Latitude | Longitude | Altitude | Speed | Heading |
|---|---|---|---|---|---|
| 2026-05-07 16:01 | 40.49468 | -3.56860 | 1976 ft | 0 kts | 90° |
| 2026-05-07 16:31 | 40.49468 | -3.56875 | 1979 ft | 3 kts | 90° |
| 2026-05-07 16:32 | 40.49468 | -3.56899 | 1976 ft | 3 kts | 90° |
| 2026-05-07 16:32 | 40.49468 | -3.56924 | 1976 ft | 3 kts | 90° |
| 2026-05-07 16:32 | 40.49468 | -3.56947 | 1976 ft | 2 kts | 90° |
| 2026-05-07 16:32 | 40.49471 | -3.56971 | 1982 ft | 3 kts | 133° |
| 2026-05-07 16:33 | 40.49486 | -3.56985 | 1979 ft | 2 kts | 175° |
| 2026-05-07 16:33 | 40.49487 | -3.56985 | 1979 ft | 0 kts | 175° |
| 2026-05-07 16:38 | 40.49463 | -3.56986 | 1981 ft | 10 kts | 181° |
| 2026-05-07 16:38 | 40.49419 | -3.57003 | 1981 ft | 4 kts | 189° |
| 2026-05-07 16:38 | 40.49360 | -3.57002 | 1979 ft | 12 kts | 179° |
| 2026-05-07 16:39 | 40.49300 | -3.57036 | 1985 ft | 11 kts | 239° |
| 2026-05-07 16:39 | 40.49249 | -3.57113 | 1986 ft | 10 kts | 201° |
| 2026-05-07 16:39 | 40.49162 | -3.57115 | 1984 ft | 23 kts | 179° |
| 2026-05-07 16:39 | 40.48995 | -3.57113 | 1987 ft | 23 kts | 180° |
| 2026-05-07 16:40 | 40.48868 | -3.57158 | 1989 ft | 17 kts | 244° |
| 2026-05-07 16:40 | 40.48813 | -3.57223 | 1989 ft | 9 kts | 192° |
| 2026-05-07 16:40 | 40.48779 | -3.57252 | 1991 ft | 8 kts | 239° |
| 2026-05-07 16:40 | 40.48724 | -3.57332 | 1993 ft | 10 kts | 194° |
| 2026-05-07 16:41 | 40.48677 | -3.57338 | 1996 ft | 4 kts | 185° |
| 2026-05-07 16:41 | 40.48653 | -3.57345 | 1997 ft | 7 kts | 195° |
| 2026-05-07 16:41 | 40.48629 | -3.57382 | 1998 ft | 2 kts | 246° |
| 2026-05-07 16:41 | 40.48606 | -3.57408 | 1998 ft | 9 kts | 221° |
| 2026-05-07 16:42 | 40.48572 | -3.57460 | 1998 ft | 3 kts | 231° |
| 2026-05-07 16:42 | 40.48568 | -3.57466 | 1998 ft | 0 kts | 231° |
| 2026-05-07 16:43 | 40.48565 | -3.57471 | 1998 ft | 6 kts | 231° |
| 2026-05-07 16:44 | 40.48509 | -3.57531 | 1999 ft | 13 kts | 197° |
| 2026-05-07 16:44 | 40.48426 | -3.57530 | 1999 ft | 11 kts | 160° |
| 2026-05-07 16:44 | 40.48392 | -3.57501 | 1998 ft | 0 kts | 143° |
| 2026-05-07 16:45 | 40.48306 | -3.57414 | 2001 ft | 42 kts | 142° |
| 2026-05-07 16:46 | 40.47919 | -3.57020 | 2000 ft | 98 kts | 142° |
| 2026-05-07 16:46 | 40.47246 | -3.56339 | 1989 ft | 145 kts | 142° |
| 2026-05-07 16:46 | 40.46398 | -3.55483 | 2363 ft | 154 kts | 141° |
| 2026-05-07 16:46 | 40.45521 | -3.54604 | 2817 ft | 164 kts | 141° |
| 2026-05-07 16:47 | 40.44599 | -3.53651 | 3208 ft | 179 kts | 139° |
| 2026-05-07 16:47 | 40.43922 | -3.52942 | 3357 ft | 197 kts | 139° |
| 2026-05-07 16:47 | 40.42780 | -3.51740 | 3576 ft | 223 kts | 140° |
| 2026-05-07 16:47 | 40.41485 | -3.50433 | 4117 ft | 238 kts | 143° |
| 2026-05-07 16:48 | 40.40189 | -3.49162 | 5261 ft | 227 kts | 144° |
| 2026-05-07 16:48 | 40.38520 | -3.47531 | 6444 ft | 230 kts | 145° |
| 2026-05-07 16:48 | 40.37228 | -3.46254 | 7209 ft | 234 kts | 144° |
| 2026-05-07 16:48 | 40.35919 | -3.44939 | 7965 ft | 241 kts | 144° |
| 2026-05-07 16:49 | 40.35035 | -3.44029 | 8459 ft | 246 kts | 144° |
| 2026-05-07 16:49 | 40.33682 | -3.42619 | 9300 ft | 249 kts | 144° |
| 2026-05-07 16:49 | 40.32311 | -3.41220 | 10171 ft | 251 kts | 144° |
| 2026-05-07 16:49 | 40.30919 | -3.39816 | 10950 ft | 254 kts | 144° |
| 2026-05-07 16:50 | 40.29438 | -3.38558 | 11726 ft | 255 kts | 158° |
| 2026-05-07 16:50 | 40.27721 | -3.38076 | 12449 ft | 256 kts | 183° |
| 2026-05-07 16:50 | 40.25944 | -3.38615 | 12920 ft | 270 kts | 202° |
| 2026-05-07 16:50 | 40.24199 | -3.39621 | 13551 ft | 278 kts | 205° |
| 2026-05-07 16:51 | 40.22485 | -3.40840 | 14233 ft | 282 kts | 216° |
| 2026-05-07 16:51 | 40.21432 | -3.41985 | 14629 ft | 290 kts | 223° |
| 2026-05-07 16:51 | 40.20077 | -3.44037 | 14933 ft | 308 kts | 237° |
| 2026-05-07 16:51 | 40.19271 | -3.46710 | 15215 ft | 328 kts | 260° |
| 2026-05-07 16:52 | 40.19437 | -3.49751 | 15539 ft | 347 kts | 286° |
| 2026-05-07 16:52 | 40.20614 | -3.52498 | 16059 ft | 360 kts | 310° |
| 2026-05-07 16:52 | 40.22622 | -3.54485 | 16672 ft | 369 kts | 333° |
| 2026-05-07 16:52 | 40.25120 | -3.55315 | 17322 ft | 376 kts | 356° |
| 2026-05-07 16:53 | 40.27741 | -3.55022 | 17975 ft | 381 kts | 9° |
| 2026-05-07 16:53 | 40.30346 | -3.54252 | 18549 ft | 385 kts | 13° |
| 2026-05-07 16:53 | 40.32964 | -3.53430 | 19086 ft | 389 kts | 12° |
| 2026-05-07 16:53 | 40.35623 | -3.52731 | 19624 ft | 392 kts | 9° |
| 2026-05-07 16:54 | 40.38328 | -3.52193 | 20155 ft | 395 kts | 6° |
| 2026-05-07 16:54 | 40.41063 | -3.51794 | 20691 ft | 397 kts | 4° |
| 2026-05-07 16:54 | 40.43834 | -3.51483 | 21171 ft | 402 kts | 3° |
| 2026-05-07 16:54 | 40.46637 | -3.51218 | 21645 ft | 406 kts | 3° |
| 2026-05-07 16:55 | 40.49422 | -3.50973 | 22172 ft | 408 kts | 2° |
| 2026-05-07 16:55 | 40.52266 | -3.50724 | 22674 ft | 412 kts | 3° |
| 2026-05-07 16:55 | 40.55135 | -3.50466 | 23172 ft | 415 kts | 3° |
| 2026-05-07 16:55 | 40.58024 | -3.50199 | 23639 ft | 418 kts | 3° |
| 2026-05-07 16:56 | 40.60928 | -3.49924 | 24074 ft | 419 kts | 2° |
| 2026-05-07 16:56 | 40.63846 | -3.49644 | 24554 ft | 420 kts | 2° |
| 2026-05-07 16:56 | 40.69688 | -3.49077 | 25482 ft | 422 kts | 2° |
| 2026-05-07 16:57 | 40.72577 | -3.48796 | 25925 ft | 423 kts | 2° |
| 2026-05-07 16:57 | 40.75516 | -3.48511 | 26362 ft | 424 kts | 2° |
| 2026-05-07 16:57 | 40.78463 | -3.48224 | 26807 ft | 425 kts | 1° |
| 2026-05-07 16:57 | 40.81416 | -3.47937 | 27233 ft | 427 kts | 1° |
| 2026-05-07 16:58 | 40.84382 | -3.47649 | 27648 ft | 428 kts | 1° |
| 2026-05-07 16:58 | 40.87361 | -3.47359 | 28014 ft | 431 kts | 1° |
| 2026-05-07 16:58 | 40.90364 | -3.47067 | 28322 ft | 434 kts | 1° |
| 2026-05-07 16:58 | 40.93383 | -3.46774 | 28717 ft | 436 kts | 1° |
| 2026-05-07 16:59 | 40.96407 | -3.46479 | 29131 ft | 436 kts | 1° |
| 2026-05-07 16:59 | 40.99403 | -3.46185 | 29507 ft | 438 kts | 1° |
| 2026-05-07 16:59 | 41.02449 | -3.45887 | 29878 ft | 440 kts | 1° |
| 2026-05-07 16:59 | 41.05502 | -3.45588 | 30198 ft | 441 kts | 1° |
| 2026-05-07 17:00 | 41.08571 | -3.45287 | 30508 ft | 443 kts | 0° |
| 2026-05-07 17:00 | 41.11665 | -3.44988 | 30681 ft | 448 kts | 1° |
| 2026-05-07 17:00 | 41.14780 | -3.44684 | 30923 ft | 450 kts | 1° |
| 2026-05-07 17:00 | 41.17912 | -3.44376 | 31249 ft | 451 kts | 1° |
| 2026-05-07 17:01 | 41.21049 | -3.44064 | 31543 ft | 452 kts | 0° |
| 2026-05-07 17:01 | 41.24194 | -3.43752 | 31815 ft | 454 kts | 0° |
| 2026-05-07 17:01 | 41.27349 | -3.43441 | 32121 ft | 456 kts | 0° |
| 2026-05-07 17:01 | 41.30473 | -3.43132 | 32259 ft | 461 kts | 1° |
| 2026-05-07 17:02 | 41.36953 | -3.42494 | 32638 ft | 468 kts | 1° |
| 2026-05-07 17:02 | 41.40186 | -3.42172 | 33125 ft | 464 kts | 1° |
| 2026-05-07 17:02 | 41.43395 | -3.41852 | 33608 ft | 460 kts | 0° |
| 2026-05-07 17:03 | 41.46576 | -3.41533 | 34032 ft | 458 kts | 1° |
| 2026-05-07 17:03 | 41.49738 | -3.40924 | 34292 ft | 462 kts | 8° |
| 2026-05-07 17:03 | 41.52803 | -3.39730 | 34501 ft | 468 kts | 16° |
| 2026-05-07 17:03 | 41.55862 | -3.38227 | 34685 ft | 470 kts | 18° |
| 2026-05-07 17:04 | 41.58904 | -3.36604 | 34923 ft | 471 kts | 19° |
| 2026-05-07 17:04 | 41.61934 | -3.34922 | 35183 ft | 471 kts | 19° |
| 2026-05-07 17:04 | 41.64959 | -3.33220 | 35418 ft | 471 kts | 20° |
| 2026-05-07 17:04 | 41.67976 | -3.31519 | 35651 ft | 472 kts | 20° |
| 2026-05-07 17:05 | 41.71007 | -3.29816 | 35893 ft | 472 kts | 19° |
| 2026-05-07 17:05 | 41.74036 | -3.28123 | 36132 ft | 472 kts | 20° |
| 2026-05-07 17:05 | 41.77074 | -3.26429 | 36340 ft | 473 kts | 19° |
| 2026-05-07 17:05 | 41.80112 | -3.24738 | 36568 ft | 473 kts | 19° |
| 2026-05-07 17:06 | 41.83113 | -3.23069 | 36785 ft | 474 kts | 19° |
| 2026-05-07 17:06 | 41.86157 | -3.21375 | 37008 ft | 474 kts | 20° |
| 2026-05-07 17:06 | 41.89202 | -3.19679 | 37242 ft | 474 kts | 19° |
| 2026-05-07 17:06 | 41.92247 | -3.17981 | 37452 ft | 474 kts | 20° |
| 2026-05-07 17:07 | 41.95293 | -3.16280 | 37682 ft | 474 kts | 20° |
| 2026-05-07 17:07 | 41.98345 | -3.14573 | 37829 ft | 476 kts | 20° |
| 2026-05-07 17:07 | 42.04419 | -3.11172 | 37909 ft | 473 kts | 20° |
| 2026-05-07 17:08 | 42.10478 | -3.07770 | 37907 ft | 471 kts | 20° |
| 2026-05-07 17:08 | 42.16531 | -3.04365 | 37911 ft | 471 kts | 20° |
| 2026-05-07 17:09 | 42.22598 | -3.00947 | 37908 ft | 473 kts | 20° |
| 2026-05-07 17:09 | 42.28678 | -2.97515 | 37903 ft | 474 kts | 20° |
| 2026-05-07 17:10 | 42.34715 | -2.94098 | 37898 ft | 474 kts | 20° |
| 2026-05-07 17:10 | 42.40796 | -2.90650 | 37899 ft | 474 kts | 20° |
| 2026-05-07 17:11 | 42.47124 | -2.88485 | 37901 ft | 467 kts | 1° |
| 2026-05-07 17:11 | 42.53592 | -2.88389 | 37898 ft | 464 kts | 355° |
| 2026-05-07 17:12 | 42.60000 | -2.88721 | 37890 ft | 464 kts | 354° |
| 2026-05-07 17:12 | 42.66454 | -2.89123 | 37908 ft | 464 kts | 354° |
| 2026-05-07 17:13 | 42.72911 | -2.89494 | 37903 ft | 465 kts | 354° |
| 2026-05-07 17:13 | 42.79366 | -2.89837 | 37904 ft | 464 kts | 354° |
| 2026-05-07 17:14 | 42.85781 | -2.90170 | 37899 ft | 464 kts | 354° |
| 2026-05-07 17:14 | 42.92244 | -2.90508 | 37888 ft | 464 kts | 354° |
| 2026-05-07 17:15 | 42.98694 | -2.90846 | 37901 ft | 464 kts | 354° |
| 2026-05-07 17:15 | 43.05144 | -2.91186 | 37898 ft | 463 kts | 354° |
| 2026-05-07 17:16 | 43.11576 | -2.91526 | 37901 ft | 462 kts | 354° |
| 2026-05-07 17:16 | 43.17995 | -2.91866 | 37902 ft | 462 kts | 354° |
| 2026-05-07 17:17 | 43.24371 | -2.92204 | 37909 ft | 461 kts | 354° |
| 2026-05-07 17:17 | 43.30762 | -2.92822 | 37911 ft | 458 kts | 346° |
| 2026-05-07 17:18 | 43.36998 | -2.94529 | 37915 ft | 457 kts | 344° |
| 2026-05-07 17:18 | 43.43197 | -2.96449 | 37908 ft | 457 kts | 344° |
| 2026-05-07 17:19 | 43.49361 | -2.98405 | 37896 ft | 458 kts | 344° |
| 2026-05-07 17:19 | 43.55580 | -3.00333 | 37897 ft | 458 kts | 345° |
| 2026-05-07 17:20 | 43.61903 | -3.01526 | 37887 ft | 463 kts | 358° |
| 2026-05-07 17:20 | 43.68329 | -3.00479 | 37886 ft | 467 kts | 8° |
| 2026-05-07 17:21 | 43.74658 | -2.98615 | 37888 ft | 469 kts | 10° |
| 2026-05-07 17:21 | 43.81014 | -2.96575 | 37893 ft | 469 kts | 11° |
| 2026-05-07 17:22 | 43.87383 | -2.94561 | 37892 ft | 469 kts | 10° |
| 2026-05-07 17:22 | 43.93756 | -2.92586 | 37892 ft | 469 kts | 10° |
| 2026-05-07 17:23 | 44.00092 | -2.90635 | 37903 ft | 469 kts | 10° |
| 2026-05-07 17:23 | 44.06466 | -2.88670 | 37898 ft | 469 kts | 10° |
| 2026-05-07 17:24 | 44.12827 | -2.86702 | 37900 ft | 468 kts | 10° |
| 2026-05-07 17:24 | 44.19188 | -2.84729 | 37920 ft | 468 kts | 10° |
| 2026-05-07 17:25 | 44.25552 | -2.82751 | 37899 ft | 468 kts | 10° |
| 2026-05-07 17:25 | 44.31868 | -2.80783 | 37909 ft | 468 kts | 10° |
| 2026-05-07 17:26 | 44.38231 | -2.78796 | 37911 ft | 468 kts | 10° |
| 2026-05-07 17:26 | 44.44589 | -2.76806 | 37913 ft | 468 kts | 10° |
| 2026-05-07 17:27 | 44.50953 | -2.74810 | 37911 ft | 469 kts | 10° |
| 2026-05-07 17:27 | 44.57278 | -2.72822 | 37912 ft | 469 kts | 10° |
| 2026-05-07 17:28 | 44.63640 | -2.70817 | 37910 ft | 469 kts | 10° |
| 2026-05-07 17:28 | 44.70005 | -2.68807 | 37918 ft | 469 kts | 10° |
| 2026-05-07 17:29 | 44.76368 | -2.66793 | 37920 ft | 469 kts | 10° |
| 2026-05-07 17:29 | 44.82744 | -2.64770 | 37924 ft | 470 kts | 11° |
| 2026-05-07 17:30 | 44.89087 | -2.62753 | 37932 ft | 471 kts | 11° |
| 2026-05-07 17:30 | 44.95472 | -2.60718 | 37930 ft | 471 kts | 11° |
| 2026-05-07 17:31 | 45.01860 | -2.58676 | 37928 ft | 470 kts | 10° |
| 2026-05-07 17:31 | 45.08246 | -2.56631 | 37930 ft | 470 kts | 10° |
| 2026-05-07 17:32 | 45.14586 | -2.54596 | 37938 ft | 470 kts | 11° |
| 2026-05-07 17:32 | 45.20965 | -2.52544 | 37933 ft | 470 kts | 10° |
| 2026-05-07 17:33 | 45.27351 | -2.50486 | 37949 ft | 470 kts | 11° |
| 2026-05-07 17:33 | 45.33731 | -2.48424 | 37944 ft | 470 kts | 11° |
| 2026-05-07 17:34 | 45.40108 | -2.46358 | 37942 ft | 470 kts | 11° |
| 2026-05-07 17:34 | 45.46447 | -2.44300 | 37944 ft | 470 kts | 11° |
| 2026-05-07 17:35 | 45.52820 | -2.42225 | 37946 ft | 470 kts | 11° |
| 2026-05-07 17:35 | 45.59198 | -2.40144 | 37947 ft | 470 kts | 11° |
| 2026-05-07 17:36 | 45.65569 | -2.38060 | 37947 ft | 470 kts | 11° |
| 2026-05-07 17:36 | 45.71899 | -2.35985 | 37952 ft | 470 kts | 11° |
| 2026-05-07 17:37 | 45.78272 | -2.33891 | 37950 ft | 470 kts | 11° |
| 2026-05-07 17:37 | 45.84654 | -2.31789 | 37952 ft | 471 kts | 11° |
| 2026-05-07 17:38 | 45.91032 | -2.29683 | 37952 ft | 471 kts | 11° |
| 2026-05-07 17:38 | 45.97374 | -2.27585 | 37955 ft | 471 kts | 11° |
| 2026-05-07 17:39 | 46.03754 | -2.25469 | 37956 ft | 470 kts | 11° |
| 2026-05-07 17:39 | 46.10167 | -2.23642 | 37956 ft | 469 kts | 7° |
| 2026-05-07 17:40 | 46.16623 | -2.22117 | 37960 ft | 469 kts | 7° |
| 2026-05-07 17:40 | 46.23022 | -2.20621 | 37959 ft | 469 kts | 7° |
| 2026-05-07 17:41 | 46.29464 | -2.19071 | 37961 ft | 469 kts | 7° |
| 2026-05-07 17:41 | 46.35903 | -2.17494 | 37965 ft | 469 kts | 7° |
| 2026-05-07 17:42 | 46.42340 | -2.15909 | 37956 ft | 469 kts | 7° |
| 2026-05-07 17:42 | 46.48732 | -2.14332 | 37958 ft | 469 kts | 7° |
| 2026-05-07 17:43 | 46.55162 | -2.12743 | 37975 ft | 469 kts | 7° |
| 2026-05-07 17:43 | 46.61598 | -2.11150 | 37960 ft | 469 kts | 7° |
| 2026-05-07 17:44 | 46.68028 | -2.09554 | 37957 ft | 469 kts | 7° |
| 2026-05-07 17:44 | 46.74415 | -2.07965 | 37957 ft | 469 kts | 7° |
| 2026-05-07 17:45 | 46.80842 | -2.06363 | 37955 ft | 469 kts | 7° |
| 2026-05-07 17:45 | 46.87273 | -2.04755 | 37960 ft | 469 kts | 7° |
| 2026-05-07 17:46 | 46.93700 | -2.03144 | 37958 ft | 469 kts | 7° |
| 2026-05-07 17:46 | 47.00139 | -2.01527 | 37957 ft | 470 kts | 7° |
| 2026-05-07 17:47 | 47.06539 | -1.99934 | 37964 ft | 470 kts | 7° |
| 2026-05-07 17:47 | 47.12981 | -1.98341 | 37962 ft | 469 kts | 7° |
| 2026-05-07 17:48 | 47.19425 | -1.96743 | 37964 ft | 469 kts | 7° |
| 2026-05-07 17:48 | 47.25863 | -1.95141 | 37964 ft | 469 kts | 7° |
| 2026-05-07 17:49 | 47.32255 | -1.93555 | 37964 ft | 469 kts | 5° |
| 2026-05-07 17:49 | 47.38727 | -1.93326 | 37970 ft | 464 kts | 355° |
| 2026-05-07 17:50 | 47.45169 | -1.93887 | 37964 ft | 464 kts | 353° |
| 2026-05-07 17:50 | 47.51609 | -1.94604 | 37962 ft | 464 kts | 353° |
| 2026-05-07 17:51 | 47.58047 | -1.95325 | 37976 ft | 464 kts | 353° |
| 2026-05-07 17:51 | 47.64462 | -1.95240 | 37965 ft | 468 kts | 7° |
| 2026-05-07 17:52 | 47.70765 | -1.92751 | 37966 ft | 470 kts | 15° |
| 2026-05-07 17:52 | 47.76974 | -1.89637 | 37966 ft | 471 kts | 17° |
| 2026-05-07 17:53 | 47.83158 | -1.86408 | 37980 ft | 471 kts | 17° |
| 2026-05-07 17:53 | 47.89302 | -1.83223 | 37987 ft | 471 kts | 17° |
| 2026-05-07 17:54 | 47.95494 | -1.80039 | 37992 ft | 471 kts | 17° |
| 2026-05-07 17:54 | 48.01687 | -1.76860 | 37995 ft | 471 kts | 17° |
| 2026-05-07 17:55 | 48.08004 | -1.74515 | 37993 ft | 466 kts | 2° |
| 2026-05-07 17:55 | 48.14417 | -1.74175 | 37993 ft | 464 kts | 358° |
| 2026-05-07 17:56 | 48.20881 | -1.74238 | 37991 ft | 464 kts | 356° |
| 2026-05-07 17:56 | 48.27340 | -1.74375 | 37987 ft | 464 kts | 356° |
| 2026-05-07 17:57 | 48.32706 | -1.74468 | 37986 ft | 464 kts | 357° |
| 2026-05-07 17:57 | 48.40207 | -1.74568 | 37985 ft | 464 kts | 357° |
| 2026-05-07 17:58 | 48.46667 | -1.74646 | 37986 ft | 464 kts | 357° |
| 2026-05-07 17:58 | 48.53111 | -1.74723 | 37986 ft | 463 kts | 357° |
| 2026-05-07 17:59 | 48.59560 | -1.74801 | 37985 ft | 463 kts | 357° |
| 2026-05-07 17:59 | 48.65958 | -1.74880 | 37991 ft | 463 kts | 357° |
| 2026-05-07 18:00 | 48.72417 | -1.74961 | 37991 ft | 465 kts | 357° |
| 2026-05-07 18:00 | 48.78880 | -1.75041 | 37990 ft | 465 kts | 357° |
| 2026-05-07 18:01 | 48.85350 | -1.75121 | 37990 ft | 465 kts | 357° |
| 2026-05-07 18:01 | 48.91773 | -1.75179 | 37990 ft | 465 kts | 358° |
| 2026-05-07 18:02 | 49.01497 | -1.74853 | 37993 ft | 467 kts | 359° |
| 2026-05-07 18:03 | 49.07989 | -1.74565 | 38001 ft | 467 kts | 359° |
| 2026-05-07 18:03 | 49.14477 | -1.74299 | 37996 ft | 466 kts | 359° |
| 2026-05-07 18:04 | 49.20907 | -1.74050 | 37994 ft | 465 kts | 359° |
| 2026-05-07 18:04 | 49.27382 | -1.73803 | 37996 ft | 466 kts | 359° |
| 2026-05-07 18:05 | 49.33857 | -1.73555 | 37999 ft | 466 kts | 359° |
| 2026-05-07 18:05 | 49.40333 | -1.73306 | 38003 ft | 466 kts | 359° |
| 2026-05-07 18:06 | 49.46776 | -1.73057 | 38009 ft | 466 kts | 359° |
| 2026-05-07 18:06 | 49.53253 | -1.72805 | 38016 ft | 466 kts | 359° |
| 2026-05-07 18:07 | 49.59740 | -1.72545 | 38017 ft | 467 kts | 359° |
| 2026-05-07 18:07 | 49.66229 | -1.72078 | 38018 ft | 467 kts | 1° |
| 2026-05-07 18:08 | 49.72682 | -1.71502 | 38016 ft | 467 kts | 1° |
| 2026-05-07 18:08 | 49.79167 | -1.70925 | 38018 ft | 467 kts | 1° |
| 2026-05-07 18:09 | 49.85658 | -1.70367 | 37842 ft | 472 kts | 1° |
| 2026-05-07 18:09 | 49.88952 | -1.70089 | 37105 ft | 477 kts | 1° |
| 2026-05-07 18:09 | 49.92294 | -1.69806 | 36144 ft | 485 kts | 2° |
| 2026-05-07 18:09 | 49.95665 | -1.69167 | 35295 ft | 492 kts | 10° |
| 2026-05-07 18:10 | 49.98981 | -1.67762 | 34561 ft | 495 kts | 18° |
| 2026-05-07 18:10 | 50.02183 | -1.65829 | 33858 ft | 496 kts | 21° |
| 2026-05-07 18:10 | 50.05355 | -1.63753 | 33071 ft | 496 kts | 22° |
| 2026-05-07 18:10 | 50.08524 | -1.61637 | 32280 ft | 495 kts | 22° |
| 2026-05-07 18:11 | 50.11647 | -1.59540 | 31513 ft | 495 kts | 22° |
| 2026-05-07 18:11 | 50.13775 | -1.58108 | 31051 ft | 493 kts | 22° |
| 2026-05-07 18:11 | 50.17923 | -1.55310 | 30277 ft | 487 kts | 22° |
| 2026-05-07 18:11 | 50.21021 | -1.53217 | 29615 ft | 483 kts | 22° |
| 2026-05-07 18:12 | 50.24086 | -1.51142 | 28969 ft | 478 kts | 22° |
| 2026-05-07 18:12 | 50.27111 | -1.49093 | 28322 ft | 474 kts | 22° |
| 2026-05-07 18:12 | 50.30122 | -1.47050 | 27682 ft | 470 kts | 22° |
| 2026-05-07 18:12 | 50.33112 | -1.45018 | 27063 ft | 466 kts | 22° |
| 2026-05-07 18:13 | 50.36068 | -1.43007 | 26462 ft | 462 kts | 22° |
| 2026-05-07 18:13 | 50.39003 | -1.41007 | 25851 ft | 458 kts | 22° |
| 2026-05-07 18:13 | 50.41910 | -1.39024 | 25275 ft | 454 kts | 22° |
| 2026-05-07 18:13 | 50.44789 | -1.37057 | 24728 ft | 449 kts | 22° |
| 2026-05-07 18:14 | 50.47644 | -1.35104 | 24128 ft | 446 kts | 22° |
| 2026-05-07 18:14 | 50.50442 | -1.33187 | 23560 ft | 443 kts | 22° |
| 2026-05-07 18:14 | 50.53252 | -1.31260 | 22935 ft | 439 kts | 22° |
| 2026-05-07 18:14 | 50.56037 | -1.29347 | 22262 ft | 435 kts | 22° |
| 2026-05-07 18:15 | 50.58781 | -1.27460 | 21628 ft | 426 kts | 22° |
| 2026-05-07 18:15 | 50.61441 | -1.25627 | 20983 ft | 407 kts | 22° |
| 2026-05-07 18:15 | 50.63987 | -1.23871 | 20471 ft | 394 kts | 22° |
| 2026-05-07 18:15 | 50.66491 | -1.22142 | 19978 ft | 392 kts | 22° |
| 2026-05-07 18:16 | 50.68984 | -1.20421 | 19461 ft | 390 kts | 22° |
| 2026-05-07 18:16 | 50.71467 | -1.18704 | 18966 ft | 388 kts | 22° |
| 2026-05-07 18:16 | 50.73928 | -1.17000 | 18459 ft | 386 kts | 22° |
| 2026-05-07 18:16 | 50.76382 | -1.15299 | 17921 ft | 383 kts | 22° |
| 2026-05-07 18:17 | 50.78777 | -1.13637 | 17415 ft | 380 kts | 22° |
| 2026-05-07 18:17 | 50.81181 | -1.11966 | 16920 ft | 376 kts | 22° |
| 2026-05-07 18:17 | 50.83561 | -1.10310 | 16429 ft | 372 kts | 22° |
| 2026-05-07 18:17 | 50.85923 | -1.08665 | 15935 ft | 369 kts | 23° |
| 2026-05-07 18:18 | 50.88265 | -1.07032 | 15431 ft | 367 kts | 23° |
| 2026-05-07 18:18 | 50.90598 | -1.05405 | 14925 ft | 365 kts | 23° |
| 2026-05-07 18:18 | 50.92913 | -1.03787 | 14432 ft | 362 kts | 23° |
| 2026-05-07 18:18 | 50.95212 | -1.02179 | 13956 ft | 360 kts | 23° |
| 2026-05-07 18:19 | 50.97496 | -1.00579 | 13419 ft | 358 kts | 23° |
| 2026-05-07 18:19 | 50.99729 | -0.98885 | 13087 ft | 355 kts | 30° |
| 2026-05-07 18:19 | 51.01654 | -0.96435 | 13043 ft | 355 kts | 45° |
| 2026-05-07 18:19 | 51.03351 | -0.93570 | 12587 ft | 357 kts | 48° |
| 2026-05-07 18:20 | 51.04969 | -0.90669 | 12170 ft | 353 kts | 49° |
| 2026-05-07 18:20 | 51.06583 | -0.87759 | 11895 ft | 350 kts | 49° |
| 2026-05-07 18:20 | 51.08195 | -0.84859 | 11622 ft | 349 kts | 48° |
| 2026-05-07 18:20 | 51.09803 | -0.81975 | 11368 ft | 348 kts | 48° |
| 2026-05-07 18:21 | 51.11407 | -0.79103 | 11098 ft | 346 kts | 48° |
| 2026-05-07 18:21 | 51.12999 | -0.76251 | 10876 ft | 340 kts | 48° |
| 2026-05-07 18:21 | 51.14539 | -0.73491 | 10677 ft | 328 kts | 48° |
| 2026-05-07 18:21 | 51.16067 | -0.70869 | 10423 ft | 318 kts | 40° |
| 2026-05-07 18:22 | 51.17935 | -0.69158 | 10219 ft | 305 kts | 15° |
| 2026-05-07 18:22 | 51.19295 | -0.68773 | 10072 ft | 297 kts | 0° |
| 2026-05-07 18:22 | 51.22013 | -0.69053 | 9635 ft | 290 kts | 351° |
| 2026-05-07 18:22 | 51.24007 | -0.69444 | 9251 ft | 288 kts | 351° |
| 2026-05-07 18:23 | 51.25958 | -0.69849 | 8873 ft | 286 kts | 351° |
| 2026-05-07 18:23 | 51.27921 | -0.70274 | 8489 ft | 283 kts | 349° |
| 2026-05-07 18:23 | 51.29767 | -0.71247 | 8094 ft | 279 kts | 329° |
| 2026-05-07 18:23 | 51.31360 | -0.72983 | 7697 ft | 276 kts | 322° |
| 2026-05-07 18:24 | 51.32871 | -0.74870 | 7315 ft | 275 kts | 321° |
| 2026-05-07 18:24 | 51.34366 | -0.76781 | 6900 ft | 275 kts | 321° |
| 2026-05-07 18:24 | 51.35849 | -0.78704 | 6528 ft | 274 kts | 321° |
| 2026-05-07 18:24 | 51.37316 | -0.80633 | 6179 ft | 271 kts | 321° |
| 2026-05-07 18:25 | 51.38746 | -0.82528 | 6018 ft | 261 kts | 321° |
| 2026-05-07 18:25 | 51.40103 | -0.84331 | 5817 ft | 246 kts | 321° |
| 2026-05-07 18:25 | 51.41375 | -0.86024 | 5618 ft | 230 kts | 321° |
| 2026-05-07 18:25 | 51.42713 | -0.87257 | 5341 ft | 219 kts | 347° |
| 2026-05-07 18:26 | 51.44168 | -0.87145 | 5121 ft | 204 kts | 22° |
| 2026-05-07 18:26 | 51.45226 | -0.85841 | 4922 ft | 192 kts | 52° |
| 2026-05-07 18:26 | 51.45951 | -0.84079 | 4612 ft | 188 kts | 60° |
| 2026-05-07 18:26 | 51.46585 | -0.82248 | 4238 ft | 188 kts | 67° |
| 2026-05-07 18:27 | 51.46982 | -0.80260 | 3874 ft | 187 kts | 76° |
| 2026-05-07 18:27 | 51.47283 | -0.78237 | 3518 ft | 186 kts | 75° |
| 2026-05-07 18:27 | 51.47503 | -0.76202 | 3204 ft | 183 kts | 86° |
| 2026-05-07 18:27 | 51.47535 | -0.74868 | 3098 ft | 178 kts | 89° |
| 2026-05-07 18:28 | 51.47560 | -0.72275 | 2927 ft | 171 kts | 90° |
| 2026-05-07 18:28 | 51.47572 | -0.70394 | 2794 ft | 166 kts | 90° |
| 2026-05-07 18:28 | 51.47596 | -0.68547 | 2591 ft | 165 kts | 90° |
| 2026-05-07 18:28 | 51.47615 | -0.66714 | 2384 ft | 164 kts | 90° |
| 2026-05-07 18:29 | 51.47625 | -0.64885 | 2147 ft | 164 kts | 91° |
| 2026-05-07 18:29 | 51.47636 | -0.63050 | 1921 ft | 164 kts | 91° |
| 2026-05-07 18:29 | 51.47649 | -0.61213 | 1694 ft | 165 kts | 91° |
| 2026-05-07 18:29 | 51.47660 | -0.59399 | 1472 ft | 163 kts | 92° |
| 2026-05-07 18:30 | 51.47672 | -0.57629 | 1251 ft | 153 kts | 92° |
| 2026-05-07 18:30 | 51.47683 | -0.55978 | 1041 ft | 143 kts | 92° |
| 2026-05-07 18:30 | 51.47693 | -0.54454 | 840 ft | 131 kts | 92° |
| 2026-05-07 18:30 | 51.47702 | -0.53021 | 679 ft | 128 kts | 92° |
| 2026-05-07 18:31 | 51.47711 | -0.51604 | 503 ft | 126 kts | 93° |
| 2026-05-07 18:31 | 51.47724 | -0.50220 | 324 ft | 125 kts | 92° |
| 2026-05-07 18:31 | 51.47751 | -0.48823 | 172 ft | 124 kts | 94° |
| 2026-05-07 18:31 | 51.47761 | -0.47464 | 96 ft | 118 kts | 93° |
| 2026-05-07 18:32 | 51.47758 | -0.46407 | 95 ft | 67 kts | 89° |
| 2026-05-07 18:32 | 51.47759 | -0.45873 | 91 ft | 41 kts | 90° |
| 2026-05-07 18:32 | 51.47747 | -0.45525 | 90 ft | 21 kts | 124° |
| 2026-05-07 18:32 | 51.47646 | -0.45467 | 90 ft | 10 kts | 180° |
| 2026-05-07 18:33 | 51.47598 | -0.45509 | 93 ft | 4 kts | 253° |
| 2026-05-07 18:33 | 51.47597 | -0.45553 | 93 ft | 5 kts | 269° |
| 2026-05-07 18:33 | 51.47596 | -0.45619 | 93 ft | 7 kts | 269° |
| 2026-05-07 18:33 | 51.47595 | -0.45708 | 93 ft | 9 kts | 269° |
| 2026-05-07 18:34 | 51.47595 | -0.45817 | 94 ft | 11 kts | 270° |
| 2026-05-07 18:34 | 51.47594 | -0.46027 | 93 ft | 27 kts | 269° |
| 2026-05-07 18:34 | 51.47594 | -0.46350 | 93 ft | 27 kts | 268° |
| 2026-05-07 18:34 | 51.47592 | -0.46629 | 93 ft | 18 kts | 269° |
| 2026-05-07 18:35 | 51.47591 | -0.46751 | 90 ft | 11 kts | 269° |
| 2026-05-07 18:35 | 51.47585 | -0.46875 | 93 ft | 12 kts | 264° |
| 2026-05-07 18:35 | 51.47582 | -0.47123 | 93 ft | 27 kts | 270° |
| 2026-05-07 18:35 | 51.47572 | -0.47326 | 93 ft | 10 kts | 240° |
| 2026-05-07 18:36 | 51.47507 | -0.47357 | 90 ft | 10 kts | 178° |
| 2026-05-07 18:36 | 51.47431 | -0.47355 | 91 ft | 8 kts | 179° |
| 2026-05-07 18:36 | 51.47400 | -0.47380 | 95 ft | 5 kts | 239° |
| 2026-05-07 18:36 | 51.47396 | -0.47441 | 93 ft | 6 kts | 271° |
| 2026-05-07 18:37 | 51.47397 | -0.47497 | 93 ft | 2 kts | 269° |
| 2026-05-07 18:37 | 51.47397 | -0.47507 | 93 ft | 0 kts | 270° |
| 2026-05-07 18:37 | 51.47397 | -0.47509 | 93 ft | 0 kts | 270° |